sensor_id;sensor_type;location;lat;lon;timestamp;P1;durP1;ratioP1;P2;durP2;ratioP2
16699;SDS011;8466;52.286;21.124;2023-09-18T00:02:02;8.90;;;8.10;;
16699;SDS011;8466;52.286;21.124;2023-09-18T00:04:31;9.68;;;8.77;;
16699;SDS011;8466;52.286;21.124;2023-09-18T00:07:00;10.02;;;8.88;;
16699;SDS011;8466;52.286;21.124;2023-09-18T00:09:29;9.38;;;8.68;;
16699;SDS011;8466;52.286;21.124;2023-09-18T00:11:59;9.77;;;8.82;;
16699;SDS011;8466;52.286;21.124;2023-09-18T00:14:27;9.40;;;8.60;;
16699;SDS011;8466;52.286;21.124;2023-09-18T00:16:56;10.95;;;10.05;;
16699;SDS011;8466;52.286;21.124;2023-09-18T00:19:25;10.75;;;9.85;;
16699;SDS011;8466;52.286;21.124;2023-09-18T00:21:54;11.55;;;10.43;;
16699;SDS011;8466;52.286;21.124;2023-09-18T00:24:22;10.70;;;9.70;;
16699;SDS011;8466;52.286;21.124;2023-09-18T00:26:52;10.00;;;9.20;;
16699;SDS011;8466;52.286;21.124;2023-09-18T00:29:22;10.23;;;9.32;;
16699;SDS011;8466;52.286;21.124;2023-09-18T00:31:51;11.00;;;9.90;;
16699;SDS011;8466;52.286;21.124;2023-09-18T00:34:19;10.95;;;9.95;;
16699;SDS011;8466;52.286;21.124;2023-09-18T00:36:48;11.38;;;10.27;;
16699;SDS011;8466;52.286;21.124;2023-09-18T00:39:17;10.30;;;9.50;;
16699;SDS011;8466;52.286;21.124;2023-09-18T00:41:46;11.35;;;10.35;;
16699;SDS011;8466;52.286;21.124;2023-09-18T00:44:21;11.57;;;10.40;;
16699;SDS011;8466;52.286;21.124;2023-09-18T00:46:50;11.50;;;10.50;;
16699;SDS011;8466;52.286;21.124;2023-09-18T00:49:21;11.52;;;10.45;;
16699;SDS011;8466;52.286;21.124;2023-09-18T00:51:51;11.95;;;10.80;;
16699;SDS011;8466;52.286;21.124;2023-09-18T00:54:20;11.20;;;10.20;;
16699;SDS011;8466;52.286;21.124;2023-09-18T00:56:49;11.07;;;10.05;;
16699;SDS011;8466;52.286;21.124;2023-09-18T00:59:22;11.07;;;10.05;;
16699;SDS011;8466;52.286;21.124;2023-09-18T01:01:50;11.35;;;10.35;;
16699;SDS011;8466;52.286;21.124;2023-09-18T01:04:20;11.75;;;10.55;;
16699;SDS011;8466;52.286;21.124;2023-09-18T01:06:51;11.80;;;10.63;;
16699;SDS011;8466;52.286;21.124;2023-09-18T01:09:23;11.13;;;10.23;;
16699;SDS011;8466;52.286;21.124;2023-09-18T01:11:53;11.38;;;10.38;;
16699;SDS011;8466;52.286;21.124;2023-09-18T01:14:31;9.50;;;8.80;;
16699;SDS011;8466;52.286;21.124;2023-09-18T01:17:05;10.43;;;9.52;;
16699;SDS011;8466;52.286;21.124;2023-09-18T01:19:38;12.63;;;11.32;;
16699;SDS011;8466;52.286;21.124;2023-09-18T01:22:07;11.60;;;10.60;;
16699;SDS011;8466;52.286;21.124;2023-09-18T01:24:39;12.85;;;11.65;;
16699;SDS011;8466;52.286;21.124;2023-09-18T01:27:09;13.65;;;12.35;;
16699;SDS011;8466;52.286;21.124;2023-09-18T01:29:39;12.52;;;11.43;;
16699;SDS011;8466;52.286;21.124;2023-09-18T01:32:08;12.68;;;11.40;;
16699;SDS011;8466;52.286;21.124;2023-09-18T01:34:37;12.35;;;11.25;;
16699;SDS011;8466;52.286;21.124;2023-09-18T01:37:09;12.52;;;11.40;;
16699;SDS011;8466;52.286;21.124;2023-09-18T01:39:40;14.18;;;12.82;;
16699;SDS011;8466;52.286;21.124;2023-09-18T01:42:10;14.35;;;12.95;;
16699;SDS011;8466;52.286;21.124;2023-09-18T01:44:39;13.70;;;12.50;;
16699;SDS011;8466;52.286;21.124;2023-09-18T01:47:09;12.57;;;11.48;;
16699;SDS011;8466;52.286;21.124;2023-09-18T01:49:42;13.52;;;12.30;;
16699;SDS011;8466;52.286;21.124;2023-09-18T01:52:10;11.85;;;10.95;;
16699;SDS011;8466;52.286;21.124;2023-09-18T01:54:41;14.52;;;13.23;;
16699;SDS011;8466;52.286;21.124;2023-09-18T01:57:09;12.55;;;11.45;;
16699;SDS011;8466;52.286;21.124;2023-09-18T01:59:39;13.45;;;12.10;;
16699;SDS011;8466;52.286;21.124;2023-09-18T02:02:08;12.68;;;11.57;;
16699;SDS011;8466;52.286;21.124;2023-09-18T02:04:43;13.15;;;11.85;;
16699;SDS011;8466;52.286;21.124;2023-09-18T02:07:31;12.15;;;10.95;;
16699;SDS011;8466;52.286;21.124;2023-09-18T02:10:02;11.82;;;10.73;;
16699;SDS011;8466;52.286;21.124;2023-09-18T02:12:31;11.77;;;10.70;;
16699;SDS011;8466;52.286;21.124;2023-09-18T02:15:02;14.15;;;11.77;;
16699;SDS011;8466;52.286;21.124;2023-09-18T02:17:33;12.30;;;11.30;;
16699;SDS011;8466;52.286;21.124;2023-09-18T02:20:02;12.10;;;10.90;;
16699;SDS011;8466;52.286;21.124;2023-09-18T02:22:38;11.60;;;10.65;;
16699;SDS011;8466;52.286;21.124;2023-09-18T02:25:09;11.55;;;10.55;;
16699;SDS011;8466;52.286;21.124;2023-09-18T02:27:37;12.77;;;11.68;;
16699;SDS011;8466;52.286;21.124;2023-09-18T02:30:06;13.13;;;11.82;;
16699;SDS011;8466;52.286;21.124;2023-09-18T02:32:37;12.80;;;11.70;;
16699;SDS011;8466;52.286;21.124;2023-09-18T02:35:06;13.98;;;12.73;;
16699;SDS011;8466;52.286;21.124;2023-09-18T02:37:35;12.85;;;11.50;;
16699;SDS011;8466;52.286;21.124;2023-09-18T02:40:04;15.98;;;12.23;;
16699;SDS011;8466;52.286;21.124;2023-09-18T02:42:36;13.40;;;12.20;;
16699;SDS011;8466;52.286;21.124;2023-09-18T02:45:04;12.95;;;11.75;;
16699;SDS011;8466;52.286;21.124;2023-09-18T02:47:34;13.18;;;11.80;;
16699;SDS011;8466;52.286;21.124;2023-09-18T02:50:04;12.63;;;11.63;;
16699;SDS011;8466;52.286;21.124;2023-09-18T02:52:33;13.90;;;11.63;;
16699;SDS011;8466;52.286;21.124;2023-09-18T02:55:02;12.82;;;11.73;;
16699;SDS011;8466;52.286;21.124;2023-09-18T02:57:31;12.98;;;11.80;;
16699;SDS011;8466;52.286;21.124;2023-09-18T03:00:02;13.82;;;12.48;;
16699;SDS011;8466;52.286;21.124;2023-09-18T03:02:31;14.13;;;12.73;;
16699;SDS011;8466;52.286;21.124;2023-09-18T03:05:00;14.60;;;12.73;;
16699;SDS011;8466;52.286;21.124;2023-09-18T03:07:29;14.05;;;12.85;;
16699;SDS011;8466;52.286;21.124;2023-09-18T03:09:58;14.93;;;13.63;;
16699;SDS011;8466;52.286;21.124;2023-09-18T03:12:27;16.15;;;14.55;;
16699;SDS011;8466;52.286;21.124;2023-09-18T03:14:55;15.45;;;13.90;;
16699;SDS011;8466;52.286;21.124;2023-09-18T03:17:25;15.18;;;13.68;;
16699;SDS011;8466;52.286;21.124;2023-09-18T03:19:54;15.35;;;13.80;;
16699;SDS011;8466;52.286;21.124;2023-09-18T03:22:23;15.07;;;13.52;;
16699;SDS011;8466;52.286;21.124;2023-09-18T03:24:52;15.65;;;14.23;;
16699;SDS011;8466;52.286;21.124;2023-09-18T03:27:21;15.32;;;13.85;;
16699;SDS011;8466;52.286;21.124;2023-09-18T03:29:55;15.38;;;13.98;;
16699;SDS011;8466;52.286;21.124;2023-09-18T03:32:23;17.02;;;15.27;;
16699;SDS011;8466;52.286;21.124;2023-09-18T03:34:54;15.55;;;14.15;;
16699;SDS011;8466;52.286;21.124;2023-09-18T03:37:27;14.23;;;13.00;;
16699;SDS011;8466;52.286;21.124;2023-09-18T03:39:56;15.40;;;13.98;;
16699;SDS011;8466;52.286;21.124;2023-09-18T03:42:24;15.20;;;13.70;;
16699;SDS011;8466;52.286;21.124;2023-09-18T03:44:54;15.00;;;13.60;;
16699;SDS011;8466;52.286;21.124;2023-09-18T03:47:22;15.10;;;13.52;;
16699;SDS011;8466;52.286;21.124;2023-09-18T03:49:53;14.50;;;13.20;;
16699;SDS011;8466;52.286;21.124;2023-09-18T03:52:21;15.07;;;13.57;;
16699;SDS011;8466;52.286;21.124;2023-09-18T03:54:50;15.20;;;13.70;;
16699;SDS011;8466;52.286;21.124;2023-09-18T03:57:19;14.77;;;13.38;;
16699;SDS011;8466;52.286;21.124;2023-09-18T03:59:48;14.25;;;12.93;;
16699;SDS011;8466;52.286;21.124;2023-09-18T04:02:16;14.38;;;13.07;;
16699;SDS011;8466;52.286;21.124;2023-09-18T04:04:45;14.80;;;13.45;;
16699;SDS011;8466;52.286;21.124;2023-09-18T04:07:15;18.48;;;14.60;;
16699;SDS011;8466;52.286;21.124;2023-09-18T04:09:46;15.75;;;14.15;;
16699;SDS011;8466;52.286;21.124;2023-09-18T04:12:14;15.32;;;13.90;;
16699;SDS011;8466;52.286;21.124;2023-09-18T04:14:44;15.85;;;14.18;;
16699;SDS011;8466;52.286;21.124;2023-09-18T04:17:14;16.08;;;14.48;;
16699;SDS011;8466;52.286;21.124;2023-09-18T04:19:43;14.82;;;13.43;;
16699;SDS011;8466;52.286;21.124;2023-09-18T04:22:12;18.05;;;14.55;;
16699;SDS011;8466;52.286;21.124;2023-09-18T04:24:42;17.20;;;15.48;;
16699;SDS011;8466;52.286;21.124;2023-09-18T04:27:10;17.80;;;16.20;;
16699;SDS011;8466;52.286;21.124;2023-09-18T04:29:39;17.98;;;16.27;;
16699;SDS011;8466;52.286;21.124;2023-09-18T04:32:08;17.63;;;15.90;;
16699;SDS011;8466;52.286;21.124;2023-09-18T04:34:37;18.20;;;16.27;;
16699;SDS011;8466;52.286;21.124;2023-09-18T04:37:06;18.05;;;16.35;;
16699;SDS011;8466;52.286;21.124;2023-09-18T04:39:34;18.67;;;16.85;;
16699;SDS011;8466;52.286;21.124;2023-09-18T04:42:05;21.23;;;18.95;;
16699;SDS011;8466;52.286;21.124;2023-09-18T04:44:34;19.90;;;18.10;;
16699;SDS011;8466;52.286;21.124;2023-09-18T04:47:03;20.35;;;18.23;;
16699;SDS011;8466;52.286;21.124;2023-09-18T04:49:32;19.98;;;18.13;;
16699;SDS011;8466;52.286;21.124;2023-09-18T04:52:01;20.15;;;18.13;;
16699;SDS011;8466;52.286;21.124;2023-09-18T04:54:32;18.92;;;17.08;;
16699;SDS011;8466;52.286;21.124;2023-09-18T04:57:00;19.27;;;17.38;;
16699;SDS011;8466;52.286;21.124;2023-09-18T04:59:31;17.10;;;15.50;;
16699;SDS011;8466;52.286;21.124;2023-09-18T05:02:00;18.45;;;16.67;;
16699;SDS011;8466;52.286;21.124;2023-09-18T05:04:29;17.90;;;16.33;;
16699;SDS011;8466;52.286;21.124;2023-09-18T05:06:58;18.00;;;16.10;;
16699;SDS011;8466;52.286;21.124;2023-09-18T05:09:31;17.80;;;16.00;;
16699;SDS011;8466;52.286;21.124;2023-09-18T05:12:01;17.95;;;16.08;;
16699;SDS011;8466;52.286;21.124;2023-09-18T05:14:36;16.70;;;15.18;;
16699;SDS011;8466;52.286;21.124;2023-09-18T05:17:05;17.60;;;16.10;;
16699;SDS011;8466;52.286;21.124;2023-09-18T05:19:34;15.30;;;14.00;;
16699;SDS011;8466;52.286;21.124;2023-09-18T05:22:03;17.23;;;15.63;;
16699;SDS011;8466;52.286;21.124;2023-09-18T05:24:32;17.15;;;15.32;;
16699;SDS011;8466;52.286;21.124;2023-09-18T05:27:01;16.38;;;14.82;;
16699;SDS011;8466;52.286;21.124;2023-09-18T05:29:32;14.70;;;13.40;;
16699;SDS011;8466;52.286;21.124;2023-09-18T05:32:04;15.60;;;14.30;;
16699;SDS011;8466;52.286;21.124;2023-09-18T05:34:33;14.95;;;13.65;;
16699;SDS011;8466;52.286;21.124;2023-09-18T05:37:02;15.25;;;13.82;;
16699;SDS011;8466;52.286;21.124;2023-09-18T05:39:30;15.48;;;14.05;;
16699;SDS011;8466;52.286;21.124;2023-09-18T05:41:59;15.93;;;14.52;;
16699;SDS011;8466;52.286;21.124;2023-09-18T05:44:28;15.18;;;13.77;;
16699;SDS011;8466;52.286;21.124;2023-09-18T05:46:56;14.98;;;13.63;;
16699;SDS011;8466;52.286;21.124;2023-09-18T05:49:26;14.65;;;13.35;;
16699;SDS011;8466;52.286;21.124;2023-09-18T05:51:55;14.63;;;13.32;;
16699;SDS011;8466;52.286;21.124;2023-09-18T05:54:24;14.60;;;13.10;;
16699;SDS011;8466;52.286;21.124;2023-09-18T05:56:52;15.23;;;13.82;;
16699;SDS011;8466;52.286;21.124;2023-09-18T05:59:21;15.00;;;13.50;;
16699;SDS011;8466;52.286;21.124;2023-09-18T06:01:50;13.93;;;12.57;;
16699;SDS011;8466;52.286;21.124;2023-09-18T06:04:20;14.48;;;13.18;;
16699;SDS011;8466;52.286;21.124;2023-09-18T06:06:51;16.20;;;14.43;;
16699;SDS011;8466;52.286;21.124;2023-09-18T06:09:20;16.02;;;14.43;;
16699;SDS011;8466;52.286;21.124;2023-09-18T06:11:49;15.63;;;14.07;;
16699;SDS011;8466;52.286;21.124;2023-09-18T06:14:17;17.63;;;14.13;;
16699;SDS011;8466;52.286;21.124;2023-09-18T06:16:46;15.45;;;13.98;;
16699;SDS011;8466;52.286;21.124;2023-09-18T06:19:15;14.18;;;12.95;;
16699;SDS011;8466;52.286;21.124;2023-09-18T06:21:45;16.00;;;14.45;;
16699;SDS011;8466;52.286;21.124;2023-09-18T06:24:15;16.42;;;14.93;;
16699;SDS011;8466;52.286;21.124;2023-09-18T06:26:43;15.73;;;14.27;;
16699;SDS011;8466;52.286;21.124;2023-09-18T06:29:12;16.35;;;14.73;;
16699;SDS011;8466;52.286;21.124;2023-09-18T06:31:41;16.17;;;14.73;;
16699;SDS011;8466;52.286;21.124;2023-09-18T06:34:10;16.08;;;14.68;;
16699;SDS011;8466;52.286;21.124;2023-09-18T06:36:38;16.67;;;14.98;;
16699;SDS011;8466;52.286;21.124;2023-09-18T06:39:07;14.82;;;13.63;;
16699;SDS011;8466;52.286;21.124;2023-09-18T06:41:37;15.68;;;14.10;;
16699;SDS011;8466;52.286;21.124;2023-09-18T06:44:06;16.35;;;14.85;;
16699;SDS011;8466;52.286;21.124;2023-09-18T06:46:34;15.85;;;14.35;;
16699;SDS011;8466;52.286;21.124;2023-09-18T06:49:03;15.35;;;13.75;;
16699;SDS011;8466;52.286;21.124;2023-09-18T06:51:32;17.40;;;14.82;;
16699;SDS011;8466;52.286;21.124;2023-09-18T06:54:09;21.25;;;16.33;;
16699;SDS011;8466;52.286;21.124;2023-09-18T06:56:39;16.90;;;15.20;;
16699;SDS011;8466;52.286;21.124;2023-09-18T06:59:08;15.77;;;13.98;;
16699;SDS011;8466;52.286;21.124;2023-09-18T07:01:37;16.05;;;14.55;;
16699;SDS011;8466;52.286;21.124;2023-09-18T07:04:06;16.10;;;14.50;;
16699;SDS011;8466;52.286;21.124;2023-09-18T07:06:36;17.75;;;16.08;;
16699;SDS011;8466;52.286;21.124;2023-09-18T07:09:05;17.35;;;15.40;;
16699;SDS011;8466;52.286;21.124;2023-09-18T07:11:34;17.05;;;15.45;;
16699;SDS011;8466;52.286;21.124;2023-09-18T07:14:05;16.35;;;14.80;;
16699;SDS011;8466;52.286;21.124;2023-09-18T07:16:36;16.83;;;15.10;;
16699;SDS011;8466;52.286;21.124;2023-09-18T07:19:04;16.40;;;14.90;;
16699;SDS011;8466;52.286;21.124;2023-09-18T07:21:33;16.08;;;14.68;;
16699;SDS011;8466;52.286;21.124;2023-09-18T07:24:06;16.27;;;14.57;;
16699;SDS011;8466;52.286;21.124;2023-09-18T07:26:35;14.90;;;13.60;;
16699;SDS011;8466;52.286;21.124;2023-09-18T07:29:06;16.80;;;15.32;;
16699;SDS011;8466;52.286;21.124;2023-09-18T07:31:35;15.30;;;13.95;;
16699;SDS011;8466;52.286;21.124;2023-09-18T07:34:04;15.73;;;14.23;;
16699;SDS011;8466;52.286;21.124;2023-09-18T07:36:32;16.77;;;14.63;;
16699;SDS011;8466;52.286;21.124;2023-09-18T07:39:01;14.65;;;13.30;;
16699;SDS011;8466;52.286;21.124;2023-09-18T07:41:31;16.48;;;14.95;;
16699;SDS011;8466;52.286;21.124;2023-09-18T07:44:00;15.05;;;13.60;;
16699;SDS011;8466;52.286;21.124;2023-09-18T07:46:30;15.60;;;14.20;;
16699;SDS011;8466;52.286;21.124;2023-09-18T07:48:59;14.98;;;13.65;;
16699;SDS011;8466;52.286;21.124;2023-09-18T07:51:27;14.90;;;13.52;;
16699;SDS011;8466;52.286;21.124;2023-09-18T07:53:56;14.57;;;13.18;;
16699;SDS011;8466;52.286;21.124;2023-09-18T07:56:26;13.65;;;12.55;;
16699;SDS011;8466;52.286;21.124;2023-09-18T07:58:55;15.38;;;13.88;;
16699;SDS011;8466;52.286;21.124;2023-09-18T08:01:24;15.25;;;13.65;;
16699;SDS011;8466;52.286;21.124;2023-09-18T08:03:58;14.90;;;13.38;;
16699;SDS011;8466;52.286;21.124;2023-09-18T08:06:27;16.27;;;14.73;;
16699;SDS011;8466;52.286;21.124;2023-09-18T08:08:56;15.90;;;13.50;;
16699;SDS011;8466;52.286;21.124;2023-09-18T08:11:25;15.77;;;14.10;;
16699;SDS011;8466;52.286;21.124;2023-09-18T08:13:54;14.43;;;13.20;;
16699;SDS011;8466;52.286;21.124;2023-09-18T08:16:22;14.70;;;13.40;;
16699;SDS011;8466;52.286;21.124;2023-09-18T08:18:54;15.05;;;13.77;;
16699;SDS011;8466;52.286;21.124;2023-09-18T08:21:25;13.55;;;12.43;;
16699;SDS011;8466;52.286;21.124;2023-09-18T08:23:55;14.43;;;12.98;;
16699;SDS011;8466;52.286;21.124;2023-09-18T08:26:24;14.93;;;13.27;;
16699;SDS011;8466;52.286;21.124;2023-09-18T08:28:54;13.30;;;12.20;;
16699;SDS011;8466;52.286;21.124;2023-09-18T08:31:23;14.00;;;12.75;;
16699;SDS011;8466;52.286;21.124;2023-09-18T08:33:54;13.68;;;12.32;;
16699;SDS011;8466;52.286;21.124;2023-09-18T08:36:23;14.15;;;12.95;;
16699;SDS011;8466;52.286;21.124;2023-09-18T08:38:55;13.75;;;12.52;;
16699;SDS011;8466;52.286;21.124;2023-09-18T08:41:24;13.63;;;12.32;;
16699;SDS011;8466;52.286;21.124;2023-09-18T08:43:59;12.32;;;11.32;;
16699;SDS011;8466;52.286;21.124;2023-09-18T08:46:30;13.32;;;12.07;;
16699;SDS011;8466;52.286;21.124;2023-09-18T08:49:01;12.98;;;11.88;;
16699;SDS011;8466;52.286;21.124;2023-09-18T08:51:32;14.25;;;12.98;;
16699;SDS011;8466;52.286;21.124;2023-09-18T08:54:02;13.85;;;12.52;;
16699;SDS011;8466;52.286;21.124;2023-09-18T08:56:33;12.38;;;11.20;;
16699;SDS011;8466;52.286;21.124;2023-09-18T08:59:03;13.15;;;11.95;;
16699;SDS011;8466;52.286;21.124;2023-09-18T09:01:32;12.27;;;11.27;;
16699;SDS011;8466;52.286;21.124;2023-09-18T09:04:00;12.77;;;11.68;;
16699;SDS011;8466;52.286;21.124;2023-09-18T09:06:32;12.05;;;10.95;;
16699;SDS011;8466;52.286;21.124;2023-09-18T09:09:03;12.05;;;10.95;;
16699;SDS011;8466;52.286;21.124;2023-09-18T09:11:32;11.35;;;10.35;;
16699;SDS011;8466;52.286;21.124;2023-09-18T09:14:13;11.80;;;10.70;;
16699;SDS011;8466;52.286;21.124;2023-09-18T09:16:49;11.52;;;10.50;;
16699;SDS011;8466;52.286;21.124;2023-09-18T09:19:18;12.23;;;11.13;;
16699;SDS011;8466;52.286;21.124;2023-09-18T09:21:59;10.93;;;9.98;;
16699;SDS011;8466;52.286;21.124;2023-09-18T09:24:39;11.27;;;10.18;;
16699;SDS011;8466;52.286;21.124;2023-09-18T09:27:08;10.13;;;9.32;;
16699;SDS011;8466;52.286;21.124;2023-09-18T09:29:37;11.77;;;10.77;;
16699;SDS011;8466;52.286;21.124;2023-09-18T09:32:13;9.80;;;9.00;;
16699;SDS011;8466;52.286;21.124;2023-09-18T09:34:43;10.00;;;9.07;;
16699;SDS011;8466;52.286;21.124;2023-09-18T09:37:14;10.25;;;9.35;;
16699;SDS011;8466;52.286;21.124;2023-09-18T09:39:47;9.50;;;8.80;;
16699;SDS011;8466;52.286;21.124;2023-09-18T09:42:20;9.13;;;8.27;;
16699;SDS011;8466;52.286;21.124;2023-09-18T09:45:01;9.50;;;8.73;;
16699;SDS011;8466;52.286;21.124;2023-09-18T09:47:32;8.70;;;8.00;;
16699;SDS011;8466;52.286;21.124;2023-09-18T09:50:06;9.93;;;9.02;;
16699;SDS011;8466;52.286;21.124;2023-09-18T09:52:41;9.13;;;8.32;;
16699;SDS011;8466;52.286;21.124;2023-09-18T09:55:21;8.18;;;7.57;;
16699;SDS011;8466;52.286;21.124;2023-09-18T09:57:52;8.48;;;7.57;;
16699;SDS011;8466;52.286;21.124;2023-09-18T10:00:24;7.45;;;6.85;;
16699;SDS011;8466;52.286;21.124;2023-09-18T10:02:59;6.63;;;6.13;;
16699;SDS011;8466;52.286;21.124;2023-09-18T10:05:30;5.80;;;5.32;;
16699;SDS011;8466;52.286;21.124;2023-09-18T10:08:07;5.88;;;5.47;;
16699;SDS011;8466;52.286;21.124;2023-09-18T10:10:40;6.03;;;4.95;;
16699;SDS011;8466;52.286;21.124;2023-09-18T10:13:15;4.60;;;4.22;;
16699;SDS011;8466;52.286;21.124;2023-09-18T10:15:48;5.28;;;4.88;;
16699;SDS011;8466;52.286;21.124;2023-09-18T10:18:22;5.10;;;4.70;;
16699;SDS011;8466;52.286;21.124;2023-09-18T10:20:57;5.38;;;4.70;;
16699;SDS011;8466;52.286;21.124;2023-09-18T10:23:37;5.30;;;4.90;;
16699;SDS011;8466;52.286;21.124;2023-09-18T10:26:14;4.75;;;4.35;;
16699;SDS011;8466;52.286;21.124;2023-09-18T10:28:51;6.57;;;4.90;;
16699;SDS011;8466;52.286;21.124;2023-09-18T10:31:26;4.80;;;4.50;;
16699;SDS011;8466;52.286;21.124;2023-09-18T10:33:55;5.10;;;4.78;;
16699;SDS011;8466;52.286;21.124;2023-09-18T10:36:25;4.60;;;4.30;;
16699;SDS011;8466;52.286;21.124;2023-09-18T10:39:03;9.20;;;4.20;;
16699;SDS011;8466;52.286;21.124;2023-09-18T10:41:43;5.32;;;4.40;;
16699;SDS011;8466;52.286;21.124;2023-09-18T10:44:12;4.68;;;4.25;;
16699;SDS011;8466;52.286;21.124;2023-09-18T10:46:43;4.38;;;3.97;;
16699;SDS011;8466;52.286;21.124;2023-09-18T10:49:12;4.30;;;3.90;;
16699;SDS011;8466;52.286;21.124;2023-09-18T10:51:41;4.07;;;3.72;;
16699;SDS011;8466;52.286;21.124;2023-09-18T10:54:14;4.35;;;3.95;;
16699;SDS011;8466;52.286;21.124;2023-09-18T10:56:44;4.47;;;4.18;;
16699;SDS011;8466;52.286;21.124;2023-09-18T10:59:13;4.57;;;4.18;;
16699;SDS011;8466;52.286;21.124;2023-09-18T11:01:46;5.03;;;3.85;;
16699;SDS011;8466;52.286;21.124;2023-09-18T11:04:17;4.53;;;4.13;;
16699;SDS011;8466;52.286;21.124;2023-09-18T11:09:44;4.85;;;4.55;;
16699;SDS011;8466;52.286;21.124;2023-09-18T11:12:14;4.78;;;4.43;;
16699;SDS011;8466;52.286;21.124;2023-09-18T11:14:45;5.07;;;4.55;;
16699;SDS011;8466;52.286;21.124;2023-09-18T11:17:32;4.70;;;4.30;;
16699;SDS011;8466;52.286;21.124;2023-09-18T11:20:09;5.18;;;4.78;;
16699;SDS011;8466;52.286;21.124;2023-09-18T11:22:55;5.30;;;4.75;;
16699;SDS011;8466;52.286;21.124;2023-09-18T11:25:35;5.03;;;4.50;;
16699;SDS011;8466;52.286;21.124;2023-09-18T11:28:05;6.82;;;4.55;;
16699;SDS011;8466;52.286;21.124;2023-09-18T11:30:35;6.63;;;4.60;;
16699;SDS011;8466;52.286;21.124;2023-09-18T11:33:06;5.40;;;4.95;;
16699;SDS011;8466;52.286;21.124;2023-09-18T11:35:36;4.65;;;4.35;;
16699;SDS011;8466;52.286;21.124;2023-09-18T11:38:07;5.32;;;4.88;;
16699;SDS011;8466;52.286;21.124;2023-09-18T11:40:38;5.15;;;4.80;;
16699;SDS011;8466;52.286;21.124;2023-09-18T11:43:21;4.80;;;4.20;;
16699;SDS011;8466;52.286;21.124;2023-09-18T11:45:53;4.80;;;4.50;;
16699;SDS011;8466;52.286;21.124;2023-09-18T11:48:23;5.28;;;4.70;;
16699;SDS011;8466;52.286;21.124;2023-09-18T11:50:56;5.50;;;4.93;;
16699;SDS011;8466;52.286;21.124;2023-09-18T11:53:29;4.97;;;4.68;;
16699;SDS011;8466;52.286;21.124;2023-09-18T11:56:11;5.32;;;4.63;;
16699;SDS011;8466;52.286;21.124;2023-09-18T11:58:45;7.60;;;5.28;;
16699;SDS011;8466;52.286;21.124;2023-09-18T12:01:14;5.78;;;5.28;;
16699;SDS011;8466;52.286;21.124;2023-09-18T12:03:43;5.00;;;4.70;;
16699;SDS011;8466;52.286;21.124;2023-09-18T12:06:17;6.18;;;5.68;;
16699;SDS011;8466;52.286;21.124;2023-09-18T12:08:54;5.40;;;5.10;;
16699;SDS011;8466;52.286;21.124;2023-09-18T12:11:25;5.88;;;5.38;;
16699;SDS011;8466;52.286;21.124;2023-09-18T12:13:57;6.20;;;5.70;;
16699;SDS011;8466;52.286;21.124;2023-09-18T12:16:26;5.53;;;5.13;;
16699;SDS011;8466;52.286;21.124;2023-09-18T12:18:57;5.60;;;5.20;;
16699;SDS011;8466;52.286;21.124;2023-09-18T12:21:28;5.70;;;5.40;;
16699;SDS011;8466;52.286;21.124;2023-09-18T12:23:57;6.50;;;6.00;;
16699;SDS011;8466;52.286;21.124;2023-09-18T12:26:27;5.50;;;5.10;;
16699;SDS011;8466;52.286;21.124;2023-09-18T12:28:58;6.20;;;5.70;;
16699;SDS011;8466;52.286;21.124;2023-09-18T12:31:27;5.50;;;5.10;;
16699;SDS011;8466;52.286;21.124;2023-09-18T12:33:59;5.75;;;5.28;;
16699;SDS011;8466;52.286;21.124;2023-09-18T12:36:28;6.18;;;5.75;;
16699;SDS011;8466;52.286;21.124;2023-09-18T12:38:59;5.97;;;5.47;;
16699;SDS011;8466;52.286;21.124;2023-09-18T12:41:30;6.03;;;5.63;;
16699;SDS011;8466;52.286;21.124;2023-09-18T12:43:59;5.95;;;5.47;;
16699;SDS011;8466;52.286;21.124;2023-09-18T12:46:30;6.18;;;5.75;;
16699;SDS011;8466;52.286;21.124;2023-09-18T12:49:14;5.95;;;5.55;;
16699;SDS011;8466;52.286;21.124;2023-09-18T12:51:43;6.68;;;5.53;;
16699;SDS011;8466;52.286;21.124;2023-09-18T12:54:37;6.47;;;5.88;;
16699;SDS011;8466;52.286;21.124;2023-09-18T12:57:15;6.22;;;5.72;;
16699;SDS011;8466;52.286;21.124;2023-09-18T12:59:45;6.25;;;5.75;;
16699;SDS011;8466;52.286;21.124;2023-09-18T13:02:17;6.32;;;5.88;;
16699;SDS011;8466;52.286;21.124;2023-09-18T13:04:50;6.65;;;6.05;;
16699;SDS011;8466;52.286;21.124;2023-09-18T13:07:20;5.97;;;5.57;;
16699;SDS011;8466;52.286;21.124;2023-09-18T13:09:59;5.80;;;5.40;;
16699;SDS011;8466;52.286;21.124;2023-09-18T13:12:41;6.30;;;5.80;;
16699;SDS011;8466;52.286;21.124;2023-09-18T13:15:10;6.38;;;5.95;;
16699;SDS011;8466;52.286;21.124;2023-09-18T13:17:41;6.13;;;5.72;;
16699;SDS011;8466;52.286;21.124;2023-09-18T13:20:13;6.70;;;6.10;;
16699;SDS011;8466;52.286;21.124;2023-09-18T13:22:47;7.10;;;6.32;;
16699;SDS011;8466;52.286;21.124;2023-09-18T13:25:20;7.18;;;6.68;;
16699;SDS011;8466;52.286;21.124;2023-09-18T13:27:51;6.68;;;6.18;;
16699;SDS011;8466;52.286;21.124;2023-09-18T13:30:21;6.20;;;5.80;;
16699;SDS011;8466;52.286;21.124;2023-09-18T13:32:51;6.50;;;6.00;;
16699;SDS011;8466;52.286;21.124;2023-09-18T13:35:28;6.63;;;6.03;;
16699;SDS011;8466;52.286;21.124;2023-09-18T13:37:57;6.50;;;6.00;;
16699;SDS011;8466;52.286;21.124;2023-09-18T13:40:26;6.60;;;6.10;;
16699;SDS011;8466;52.286;21.124;2023-09-18T13:42:56;6.13;;;5.63;;
16699;SDS011;8466;52.286;21.124;2023-09-18T13:45:25;6.50;;;6.03;;
16699;SDS011;8466;52.286;21.124;2023-09-18T13:47:54;6.40;;;5.90;;
16699;SDS011;8466;52.286;21.124;2023-09-18T13:50:24;6.88;;;6.28;;
16699;SDS011;8466;52.286;21.124;2023-09-18T13:53:04;6.80;;;6.20;;
16699;SDS011;8466;52.286;21.124;2023-09-18T13:55:37;6.53;;;5.93;;
16699;SDS011;8466;52.286;21.124;2023-09-18T13:58:07;6.90;;;6.30;;
16699;SDS011;8466;52.286;21.124;2023-09-18T14:00:37;7.57;;;6.13;;
16699;SDS011;8466;52.286;21.124;2023-09-18T14:03:06;6.95;;;6.45;;
16699;SDS011;8466;52.286;21.124;2023-09-18T14:05:36;6.68;;;6.07;;
16699;SDS011;8466;52.286;21.124;2023-09-18T14:08:05;7.05;;;6.43;;
16699;SDS011;8466;52.286;21.124;2023-09-18T14:10:34;6.28;;;5.70;;
16699;SDS011;8466;52.286;21.124;2023-09-18T14:13:05;11.77;;;7.05;;
16699;SDS011;8466;52.286;21.124;2023-09-18T14:15:40;6.82;;;6.10;;
16699;SDS011;8466;52.286;21.124;2023-09-18T14:18:09;6.82;;;6.18;;
16699;SDS011;8466;52.286;21.124;2023-09-18T14:20:40;6.85;;;6.20;;
16699;SDS011;8466;52.286;21.124;2023-09-18T14:23:09;6.57;;;6.07;;
16699;SDS011;8466;52.286;21.124;2023-09-18T14:25:38;6.82;;;6.13;;
16699;SDS011;8466;52.286;21.124;2023-09-18T14:28:09;5.68;;;5.20;;
16699;SDS011;8466;52.286;21.124;2023-09-18T14:30:38;6.45;;;5.95;;
16699;SDS011;8466;52.286;21.124;2023-09-18T14:33:07;6.35;;;5.65;;
16699;SDS011;8466;52.286;21.124;2023-09-18T14:35:36;6.78;;;6.10;;
16699;SDS011;8466;52.286;21.124;2023-09-18T14:38:06;5.40;;;5.00;;
16699;SDS011;8466;52.286;21.124;2023-09-18T14:40:35;5.85;;;5.45;;
16699;SDS011;8466;52.286;21.124;2023-09-18T14:43:03;6.15;;;5.65;;
16699;SDS011;8466;52.286;21.124;2023-09-18T14:45:37;6.50;;;5.90;;
16699;SDS011;8466;52.286;21.124;2023-09-18T14:48:07;7.05;;;6.45;;
16699;SDS011;8466;52.286;21.124;2023-09-18T14:50:36;6.90;;;5.75;;
16699;SDS011;8466;52.286;21.124;2023-09-18T14:53:05;6.20;;;5.57;;
16699;SDS011;8466;52.286;21.124;2023-09-18T14:55:36;6.00;;;5.50;;